sensor_id;sensor_type;location;lat;lon;timestamp;P1;durP1;ratioP1;P2;durP2;ratioP2
54328;SDS011;40710;51.120;13.136;2024-01-15T00:01:09;15.87;;;15.18;;
54328;SDS011;40710;51.120;13.136;2024-01-15T00:03:34;15.16;;;14.63;;
54328;SDS011;40710;51.120;13.136;2024-01-15T00:05:59;15.38;;;14.83;;
54328;SDS011;40710;51.120;13.136;2024-01-15T00:08:23;15.43;;;14.91;;
54328;SDS011;40710;51.120;13.136;2024-01-15T00:10:48;16.43;;;15.81;;
54328;SDS011;40710;51.120;13.136;2024-01-15T00:13:12;16.31;;;15.62;;
54328;SDS011;40710;51.120;13.136;2024-01-15T00:15:37;16.76;;;15.94;;
54328;SDS011;40710;51.120;13.136;2024-01-15T00:18:01;15.66;;;15.09;;
54328;SDS011;40710;51.120;13.136;2024-01-15T00:20:26;15.70;;;14.86;;
54328;SDS011;40710;51.120;13.136;2024-01-15T00:22:50;16.26;;;15.44;;
54328;SDS011;40710;51.120;13.136;2024-01-15T00:25:15;17.29;;;16.33;;
54328;SDS011;40710;51.120;13.136;2024-01-15T00:27:39;15.96;;;15.30;;
54328;SDS011;40710;51.120;13.136;2024-01-15T00:30:04;16.27;;;15.62;;
54328;SDS011;40710;51.120;13.136;2024-01-15T00:32:29;15.91;;;15.23;;
54328;SDS011;40710;51.120;13.136;2024-01-15T00:34:53;15.82;;;15.13;;
54328;SDS011;40710;51.120;13.136;2024-01-15T00:37:18;15.83;;;15.12;;
54328;SDS011;40710;51.120;13.136;2024-01-15T00:39:43;15.13;;;14.68;;
54328;SDS011;40710;51.120;13.136;2024-01-15T00:42:07;15.08;;;14.67;;
54328;SDS011;40710;51.120;13.136;2024-01-15T00:44:32;15.47;;;14.91;;
54328;SDS011;40710;51.120;13.136;2024-01-15T00:46:56;15.15;;;14.61;;
54328;SDS011;40710;51.120;13.136;2024-01-15T00:49:21;15.37;;;14.76;;
54328;SDS011;40710;51.120;13.136;2024-01-15T00:51:46;14.82;;;14.41;;
54328;SDS011;40710;51.120;13.136;2024-01-15T00:54:11;15.05;;;14.56;;
54328;SDS011;40710;51.120;13.136;2024-01-15T00:56:36;14.97;;;14.32;;
54328;SDS011;40710;51.120;13.136;2024-01-15T00:59:01;15.19;;;14.49;;
54328;SDS011;40710;51.120;13.136;2024-01-15T01:01:25;15.04;;;14.48;;
54328;SDS011;40710;51.120;13.136;2024-01-15T01:03:50;15.59;;;15.05;;
54328;SDS011;40710;51.120;13.136;2024-01-15T01:06:14;14.82;;;14.31;;
54328;SDS011;40710;51.120;13.136;2024-01-15T01:08:39;14.58;;;14.25;;
54328;SDS011;40710;51.120;13.136;2024-01-15T01:11:04;15.25;;;14.63;;
54328;SDS011;40710;51.120;13.136;2024-01-15T01:13:28;15.62;;;15.09;;
54328;SDS011;40710;51.120;13.136;2024-01-15T01:15:53;15.42;;;14.80;;
54328;SDS011;40710;51.120;13.136;2024-01-15T01:18:17;15.13;;;14.61;;
54328;SDS011;40710;51.120;13.136;2024-01-15T01:20:42;14.44;;;13.90;;
54328;SDS011;40710;51.120;13.136;2024-01-15T01:23:06;14.75;;;14.31;;
54328;SDS011;40710;51.120;13.136;2024-01-15T01:25:31;15.09;;;14.46;;
54328;SDS011;40710;51.120;13.136;2024-01-15T01:27:55;15.01;;;14.36;;
54328;SDS011;40710;51.120;13.136;2024-01-15T01:30:20;15.49;;;14.98;;
54328;SDS011;40710;51.120;13.136;2024-01-15T01:32:44;15.73;;;15.03;;
54328;SDS011;40710;51.120;13.136;2024-01-15T01:35:09;15.27;;;14.56;;
54328;SDS011;40710;51.120;13.136;2024-01-15T01:37:34;14.58;;;14.13;;
54328;SDS011;40710;51.120;13.136;2024-01-15T01:39:58;14.52;;;14.12;;
54328;SDS011;40710;51.120;13.136;2024-01-15T01:42:23;14.09;;;13.63;;
54328;SDS011;40710;51.120;13.136;2024-01-15T01:44:47;14.72;;;14.22;;
54328;SDS011;40710;51.120;13.136;2024-01-15T01:47:12;14.04;;;13.57;;
54328;SDS011;40710;51.120;13.136;2024-01-15T01:49:38;14.33;;;13.97;;
54328;SDS011;40710;51.120;13.136;2024-01-15T01:52:04;14.58;;;14.11;;
54328;SDS011;40710;51.120;13.136;2024-01-15T01:54:31;14.20;;;13.84;;
54328;SDS011;40710;51.120;13.136;2024-01-15T01:56:57;14.34;;;13.84;;
54328;SDS011;40710;51.120;13.136;2024-01-15T01:59:22;14.51;;;14.13;;
54328;SDS011;40710;51.120;13.136;2024-01-15T02:01:47;14.63;;;14.02;;
54328;SDS011;40710;51.120;13.136;2024-01-15T02:04:13;14.69;;;14.00;;
54328;SDS011;40710;51.120;13.136;2024-01-15T02:06:39;14.90;;;14.44;;
54328;SDS011;40710;51.120;13.136;2024-01-15T02:09:04;15.10;;;14.41;;
54328;SDS011;40710;51.120;13.136;2024-01-15T02:11:29;15.97;;;15.16;;
54328;SDS011;40710;51.120;13.136;2024-01-15T02:13:54;15.52;;;14.72;;
54328;SDS011;40710;51.120;13.136;2024-01-15T02:16:18;15.61;;;14.91;;
54328;SDS011;40710;51.120;13.136;2024-01-15T02:18:43;15.67;;;15.02;;
54328;SDS011;40710;51.120;13.136;2024-01-15T02:21:09;15.15;;;14.58;;
54328;SDS011;40710;51.120;13.136;2024-01-15T02:23:34;15.85;;;15.22;;
54328;SDS011;40710;51.120;13.136;2024-01-15T02:25:59;16.58;;;15.81;;
54328;SDS011;40710;51.120;13.136;2024-01-15T02:28:23;16.41;;;15.75;;
54328;SDS011;40710;51.120;13.136;2024-01-15T02:30:48;16.18;;;15.79;;
54328;SDS011;40710;51.120;13.136;2024-01-15T02:33:13;15.78;;;15.42;;
54328;SDS011;40710;51.120;13.136;2024-01-15T02:35:37;16.85;;;16.25;;
54328;SDS011;40710;51.120;13.136;2024-01-15T02:38:02;16.71;;;16.08;;
54328;SDS011;40710;51.120;13.136;2024-01-15T02:40:28;17.27;;;16.70;;
54328;SDS011;40710;51.120;13.136;2024-01-15T02:42:52;17.72;;;17.11;;
54328;SDS011;40710;51.120;13.136;2024-01-15T02:45:17;17.52;;;16.91;;
54328;SDS011;40710;51.120;13.136;2024-01-15T02:47:41;17.81;;;16.95;;
54328;SDS011;40710;51.120;13.136;2024-01-15T02:50:06;18.59;;;17.93;;
54328;SDS011;40710;51.120;13.136;2024-01-15T02:52:31;18.75;;;17.98;;
54328;SDS011;40710;51.120;13.136;2024-01-15T02:54:55;19.56;;;18.69;;
54328;SDS011;40710;51.120;13.136;2024-01-15T02:57:20;19.48;;;18.68;;
54328;SDS011;40710;51.120;13.136;2024-01-15T02:59:44;19.33;;;18.76;;
54328;SDS011;40710;51.120;13.136;2024-01-15T03:02:09;19.57;;;18.90;;
54328;SDS011;40710;51.120;13.136;2024-01-15T03:04:33;20.13;;;19.34;;
54328;SDS011;40710;51.120;13.136;2024-01-15T03:06:58;20.78;;;19.90;;
54328;SDS011;40710;51.120;13.136;2024-01-15T03:09:22;20.87;;;19.90;;
54328;SDS011;40710;51.120;13.136;2024-01-15T03:11:47;20.90;;;19.95;;
54328;SDS011;40710;51.120;13.136;2024-01-15T03:14:13;20.73;;;19.69;;
54328;SDS011;40710;51.120;13.136;2024-01-15T03:16:38;22.23;;;20.74;;
54328;SDS011;40710;51.120;13.136;2024-01-15T03:19:02;21.20;;;20.13;;
54328;SDS011;40710;51.120;13.136;2024-01-15T03:21:27;21.16;;;19.96;;
54328;SDS011;40710;51.120;13.136;2024-01-15T03:23:51;21.43;;;20.32;;
54328;SDS011;40710;51.120;13.136;2024-01-15T03:26:16;21.11;;;20.27;;
54328;SDS011;40710;51.120;13.136;2024-01-15T03:28:40;22.58;;;21.42;;
54328;SDS011;40710;51.120;13.136;2024-01-15T03:31:05;21.29;;;20.44;;
54328;SDS011;40710;51.120;13.136;2024-01-15T03:33:29;21.71;;;20.90;;
54328;SDS011;40710;51.120;13.136;2024-01-15T03:35:54;22.19;;;21.14;;
54328;SDS011;40710;51.120;13.136;2024-01-15T03:38:18;21.98;;;20.92;;
54328;SDS011;40710;51.120;13.136;2024-01-15T03:40:43;22.55;;;21.26;;
54328;SDS011;40710;51.120;13.136;2024-01-15T03:43:07;22.05;;;21.11;;
54328;SDS011;40710;51.120;13.136;2024-01-15T03:45:32;22.37;;;21.18;;
54328;SDS011;40710;51.120;13.136;2024-01-15T03:47:56;22.41;;;21.37;;
54328;SDS011;40710;51.120;13.136;2024-01-15T03:50:21;22.33;;;21.07;;
54328;SDS011;40710;51.120;13.136;2024-01-15T03:52:45;22.22;;;21.30;;
54328;SDS011;40710;51.120;13.136;2024-01-15T03:55:10;21.14;;;20.30;;
54328;SDS011;40710;51.120;13.136;2024-01-15T03:57:35;21.03;;;20.22;;
54328;SDS011;40710;51.120;13.136;2024-01-15T03:59:59;20.85;;;20.15;;
54328;SDS011;40710;51.120;13.136;2024-01-15T04:02:24;20.84;;;20.03;;
54328;SDS011;40710;51.120;13.136;2024-01-15T04:04:48;20.55;;;19.71;;
54328;SDS011;40710;51.120;13.136;2024-01-15T04:07:13;20.69;;;19.85;;
54328;SDS011;40710;51.120;13.136;2024-01-15T04:09:37;20.69;;;19.78;;
54328;SDS011;40710;51.120;13.136;2024-01-15T04:12:02;20.33;;;19.40;;
54328;SDS011;40710;51.120;13.136;2024-01-15T04:14:26;20.70;;;19.71;;
54328;SDS011;40710;51.120;13.136;2024-01-15T04:16:51;19.72;;;18.96;;
54328;SDS011;40710;51.120;13.136;2024-01-15T04:19:15;20.66;;;19.69;;
54328;SDS011;40710;51.120;13.136;2024-01-15T04:21:40;20.08;;;19.23;;
54328;SDS011;40710;51.120;13.136;2024-01-15T04:24:05;20.60;;;19.40;;
54328;SDS011;40710;51.120;13.136;2024-01-15T04:26:30;21.67;;;20.30;;
54328;SDS011;40710;51.120;13.136;2024-01-15T04:28:54;20.63;;;19.60;;
54328;SDS011;40710;51.120;13.136;2024-01-15T04:31:22;20.42;;;19.44;;
54328;SDS011;40710;51.120;13.136;2024-01-15T04:33:48;19.77;;;18.72;;
54328;SDS011;40710;51.120;13.136;2024-01-15T04:36:12;19.81;;;18.67;;
54328;SDS011;40710;51.120;13.136;2024-01-15T04:38:37;18.79;;;17.99;;
54328;SDS011;40710;51.120;13.136;2024-01-15T04:41:01;18.26;;;17.68;;
54328;SDS011;40710;51.120;13.136;2024-01-15T04:43:26;19.20;;;18.19;;
54328;SDS011;40710;51.120;13.136;2024-01-15T04:45:50;18.38;;;17.64;;
54328;SDS011;40710;51.120;13.136;2024-01-15T04:48:15;18.03;;;17.27;;
54328;SDS011;40710;51.120;13.136;2024-01-15T04:50:39;18.29;;;17.66;;
54328;SDS011;40710;51.120;13.136;2024-01-15T04:53:04;19.11;;;18.31;;
54328;SDS011;40710;51.120;13.136;2024-01-15T04:55:28;18.17;;;17.46;;
54328;SDS011;40710;51.120;13.136;2024-01-15T04:57:53;18.04;;;17.43;;
54328;SDS011;40710;51.120;13.136;2024-01-15T05:00:17;19.11;;;18.08;;
54328;SDS011;40710;51.120;13.136;2024-01-15T05:02:42;18.77;;;17.96;;
54328;SDS011;40710;51.120;13.136;2024-01-15T05:05:06;19.47;;;18.32;;
54328;SDS011;40710;51.120;13.136;2024-01-15T05:07:31;19.23;;;18.26;;
54328;SDS011;40710;51.120;13.136;2024-01-15T05:09:56;18.58;;;17.72;;
54328;SDS011;40710;51.120;13.136;2024-01-15T05:12:20;18.74;;;18.10;;
54328;SDS011;40710;51.120;13.136;2024-01-15T05:14:45;20.34;;;18.99;;
54328;SDS011;40710;51.120;13.136;2024-01-15T05:17:09;18.61;;;17.75;;
54328;SDS011;40710;51.120;13.136;2024-01-15T05:19:34;19.13;;;18.13;;
54328;SDS011;40710;51.120;13.136;2024-01-15T05:21:58;19.23;;;18.25;;
54328;SDS011;40710;51.120;13.136;2024-01-15T05:24:23;19.38;;;18.15;;
54328;SDS011;40710;51.120;13.136;2024-01-15T05:26:48;18.70;;;17.71;;
54328;SDS011;40710;51.120;13.136;2024-01-15T05:29:12;19.76;;;18.74;;
54328;SDS011;40710;51.120;13.136;2024-01-15T05:31:37;19.08;;;18.21;;
54328;SDS011;40710;51.120;13.136;2024-01-15T05:34:01;19.70;;;18.37;;
54328;SDS011;40710;51.120;13.136;2024-01-15T05:36:26;19.32;;;18.11;;
54328;SDS011;40710;51.120;13.136;2024-01-15T05:38:50;19.54;;;18.46;;
54328;SDS011;40710;51.120;13.136;2024-01-15T05:41:15;18.60;;;17.65;;
54328;SDS011;40710;51.120;13.136;2024-01-15T05:43:39;18.40;;;17.44;;
54328;SDS011;40710;51.120;13.136;2024-01-15T05:46:04;17.91;;;17.16;;
54328;SDS011;40710;51.120;13.136;2024-01-15T05:48:28;18.98;;;18.01;;
54328;SDS011;40710;51.120;13.136;2024-01-15T05:50:53;18.61;;;17.68;;
54328;SDS011;40710;51.120;13.136;2024-01-15T05:53:18;17.46;;;16.48;;
54328;SDS011;40710;51.120;13.136;2024-01-15T05:55:42;17.70;;;16.67;;
54328;SDS011;40710;51.120;13.136;2024-01-15T05:58:07;17.76;;;16.67;;
54328;SDS011;40710;51.120;13.136;2024-01-15T06:00:31;17.85;;;17.03;;
54328;SDS011;40710;51.120;13.136;2024-01-15T06:02:57;18.02;;;16.95;;
54328;SDS011;40710;51.120;13.136;2024-01-15T06:05:21;17.38;;;16.51;;
54328;SDS011;40710;51.120;13.136;2024-01-15T06:07:46;17.44;;;16.52;;
54328;SDS011;40710;51.120;13.136;2024-01-15T06:10:10;17.31;;;16.42;;
54328;SDS011;40710;51.120;13.136;2024-01-15T06:12:35;17.00;;;16.32;;
54328;SDS011;40710;51.120;13.136;2024-01-15T06:14:59;16.96;;;16.12;;
54328;SDS011;40710;51.120;13.136;2024-01-15T06:17:24;16.49;;;15.78;;
54328;SDS011;40710;51.120;13.136;2024-01-15T06:19:48;16.68;;;15.93;;
54328;SDS011;40710;51.120;13.136;2024-01-15T06:22:13;16.62;;;15.87;;
54328;SDS011;40710;51.120;13.136;2024-01-15T06:24:37;16.71;;;16.19;;
54328;SDS011;40710;51.120;13.136;2024-01-15T06:27:02;16.25;;;15.68;;
54328;SDS011;40710;51.120;13.136;2024-01-15T06:29:27;15.62;;;14.85;;
54328;SDS011;40710;51.120;13.136;2024-01-15T06:31:52;16.10;;;15.23;;
54328;SDS011;40710;51.120;13.136;2024-01-15T06:34:16;15.57;;;14.59;;
54328;SDS011;40710;51.120;13.136;2024-01-15T06:36:41;15.47;;;14.65;;
54328;SDS011;40710;51.120;13.136;2024-01-15T06:39:06;15.46;;;14.67;;
54328;SDS011;40710;51.120;13.136;2024-01-15T06:41:30;14.47;;;13.73;;
54328;SDS011;40710;51.120;13.136;2024-01-15T06:43:55;14.27;;;13.62;;
54328;SDS011;40710;51.120;13.136;2024-01-15T06:46:20;14.33;;;13.65;;
54328;SDS011;40710;51.120;13.136;2024-01-15T06:48:45;14.19;;;13.44;;
54328;SDS011;40710;51.120;13.136;2024-01-15T06:51:10;14.04;;;13.65;;
54328;SDS011;40710;51.120;13.136;2024-01-15T06:53:34;13.63;;;13.20;;
54328;SDS011;40710;51.120;13.136;2024-01-15T06:55:59;13.19;;;12.72;;
54328;SDS011;40710;51.120;13.136;2024-01-15T06:58:23;14.61;;;13.79;;
54328;SDS011;40710;51.120;13.136;2024-01-15T07:00:48;14.69;;;13.90;;
54328;SDS011;40710;51.120;13.136;2024-01-15T07:03:13;14.32;;;13.74;;
54328;SDS011;40710;51.120;13.136;2024-01-15T07:05:37;14.34;;;13.81;;
54328;SDS011;40710;51.120;13.136;2024-01-15T07:08:02;14.69;;;13.95;;
54328;SDS011;40710;51.120;13.136;2024-01-15T07:10:26;14.04;;;13.57;;
54328;SDS011;40710;51.120;13.136;2024-01-15T07:12:51;13.70;;;13.23;;
54328;SDS011;40710;51.120;13.136;2024-01-15T07:15:15;14.50;;;13.89;;
54328;SDS011;40710;51.120;13.136;2024-01-15T07:17:40;13.73;;;13.22;;
54328;SDS011;40710;51.120;13.136;2024-01-15T07:20:06;14.41;;;13.94;;
54328;SDS011;40710;51.120;13.136;2024-01-15T07:22:32;15.21;;;14.54;;
54328;SDS011;40710;51.120;13.136;2024-01-15T07:24:56;13.92;;;13.15;;
54328;SDS011;40710;51.120;13.136;2024-01-15T07:27:21;13.17;;;12.70;;
54328;SDS011;40710;51.120;13.136;2024-01-15T07:29:45;13.63;;;13.19;;
54328;SDS011;40710;51.120;13.136;2024-01-15T07:32:10;13.65;;;13.29;;
54328;SDS011;40710;51.120;13.136;2024-01-15T07:34:34;14.00;;;13.47;;
54328;SDS011;40710;51.120;13.136;2024-01-15T07:36:59;13.86;;;13.39;;
54328;SDS011;40710;51.120;13.136;2024-01-15T07:39:23;13.90;;;13.31;;
54328;SDS011;40710;51.120;13.136;2024-01-15T07:41:49;13.99;;;13.56;;
54328;SDS011;40710;51.120;13.136;2024-01-15T07:44:13;13.63;;;13.22;;
54328;SDS011;40710;51.120;13.136;2024-01-15T07:46:39;13.74;;;13.25;;
54328;SDS011;40710;51.120;13.136;2024-01-15T07:49:04;14.00;;;13.50;;
54328;SDS011;40710;51.120;13.136;2024-01-15T07:51:29;14.01;;;13.48;;
54328;SDS011;40710;51.120;13.136;2024-01-15T07:53:54;14.74;;;14.18;;
54328;SDS011;40710;51.120;13.136;2024-01-15T07:56:22;14.04;;;13.39;;
54328;SDS011;40710;51.120;13.136;2024-01-15T07:58:47;13.93;;;13.47;;
54328;SDS011;40710;51.120;13.136;2024-01-15T08:01:11;13.68;;;13.21;;
54328;SDS011;40710;51.120;13.136;2024-01-15T08:03:36;14.44;;;13.86;;
54328;SDS011;40710;51.120;13.136;2024-01-15T08:06:00;14.80;;;14.20;;
54328;SDS011;40710;51.120;13.136;2024-01-15T08:08:25;14.18;;;13.75;;
54328;SDS011;40710;51.120;13.136;2024-01-15T08:10:50;14.01;;;13.47;;
54328;SDS011;40710;51.120;13.136;2024-01-15T08:13:14;13.92;;;13.49;;
54328;SDS011;40710;51.120;13.136;2024-01-15T08:15:39;13.90;;;13.54;;
54328;SDS011;40710;51.120;13.136;2024-01-15T08:18:04;14.70;;;14.20;;
54328;SDS011;40710;51.120;13.136;2024-01-15T08:20:29;14.32;;;13.75;;
54328;SDS011;40710;51.120;13.136;2024-01-15T08:22:54;14.19;;;13.52;;
54328;SDS011;40710;51.120;13.136;2024-01-15T08:25:18;13.94;;;13.47;;
54328;SDS011;40710;51.120;13.136;2024-01-15T08:27:43;12.94;;;12.67;;
54328;SDS011;40710;51.120;13.136;2024-01-15T08:30:07;13.24;;;12.90;;
54328;SDS011;40710;51.120;13.136;2024-01-15T08:32:32;13.21;;;12.86;;
54328;SDS011;40710;51.120;13.136;2024-01-15T08:34:57;13.30;;;12.90;;
54328;SDS011;40710;51.120;13.136;2024-01-15T08:37:21;13.13;;;12.74;;
54328;SDS011;40710;51.120;13.136;2024-01-15T08:39:46;13.63;;;13.00;;
54328;SDS011;40710;51.120;13.136;2024-01-15T08:42:10;13.12;;;12.57;;
54328;SDS011;40710;51.120;13.136;2024-01-15T08:44:35;12.57;;;12.18;;
54328;SDS011;40710;51.120;13.136;2024-01-15T08:47:00;13.05;;;12.69;;
54328;SDS011;40710;51.120;13.136;2024-01-15T08:49:24;13.31;;;12.90;;
54328;SDS011;40710;51.120;13.136;2024-01-15T08:51:49;13.38;;;12.85;;
54328;SDS011;40710;51.120;13.136;2024-01-15T08:54:13;12.96;;;12.51;;
54328;SDS011;40710;51.120;13.136;2024-01-15T08:56:38;12.31;;;11.97;;
54328;SDS011;40710;51.120;13.136;2024-01-15T08:59:04;12.37;;;11.98;;
54328;SDS011;40710;51.120;13.136;2024-01-15T09:01:28;12.93;;;12.35;;
54328;SDS011;40710;51.120;13.136;2024-01-15T09:03:53;12.75;;;12.30;;
54328;SDS011;40710;51.120;13.136;2024-01-15T09:06:18;13.12;;;12.71;;
54328;SDS011;40710;51.120;13.136;2024-01-15T09:08:42;13.00;;;12.67;;
54328;SDS011;40710;51.120;13.136;2024-01-15T09:11:07;12.15;;;11.87;;
54328;SDS011;40710;51.120;13.136;2024-01-15T09:13:31;13.06;;;12.60;;
54328;SDS011;40710;51.120;13.136;2024-01-15T09:15:57;12.33;;;12.00;;
54328;SDS011;40710;51.120;13.136;2024-01-15T09:18:22;12.20;;;11.79;;
54328;SDS011;40710;51.120;13.136;2024-01-15T09:20:47;12.32;;;11.94;;
54328;SDS011;40710;51.120;13.136;2024-01-15T09:23:11;12.26;;;11.84;;
54328;SDS011;40710;51.120;13.136;2024-01-15T09:25:36;12.27;;;11.90;;
54328;SDS011;40710;51.120;13.136;2024-01-15T09:28:00;11.63;;;11.35;;
54328;SDS011;40710;51.120;13.136;2024-01-15T09:30:25;10.85;;;10.55;;
54328;SDS011;40710;51.120;13.136;2024-01-15T09:32:50;11.68;;;11.26;;
54328;SDS011;40710;51.120;13.136;2024-01-15T09:35:14;11.75;;;11.42;;
54328;SDS011;40710;51.120;13.136;2024-01-15T09:37:39;11.20;;;10.83;;
54328;SDS011;40710;51.120;13.136;2024-01-15T09:40:05;11.74;;;11.38;;
54328;SDS011;40710;51.120;13.136;2024-01-15T09:42:30;11.19;;;10.97;;
54328;SDS011;40710;51.120;13.136;2024-01-15T09:44:55;10.69;;;10.39;;
54328;SDS011;40710;51.120;13.136;2024-01-15T09:47:20;10.96;;;10.58;;
54328;SDS011;40710;51.120;13.136;2024-01-15T09:49:46;10.88;;;10.55;;
54328;SDS011;40710;51.120;13.136;2024-01-15T09:52:10;10.94;;;10.65;;
54328;SDS011;40710;51.120;13.136;2024-01-15T09:54:35;11.69;;;11.44;;
54328;SDS011;40710;51.120;13.136;2024-01-15T09:57:00;10.44;;;10.11;;
54328;SDS011;40710;51.120;13.136;2024-01-15T09:59:25;10.40;;;10.10;;
54328;SDS011;40710;51.120;13.136;2024-01-15T10:01:52;10.76;;;10.44;;
54328;SDS011;40710;51.120;13.136;2024-01-15T10:04:18;10.24;;;9.98;;
54328;SDS011;40710;51.120;13.136;2024-01-15T10:06:46;10.34;;;10.05;;
54328;SDS011;40710;51.120;13.136;2024-01-15T10:09:12;10.51;;;10.26;;
54328;SDS011;40710;51.120;13.136;2024-01-15T10:11:38;10.49;;;10.13;;
54328;SDS011;40710;51.120;13.136;2024-01-15T10:14:04;9.89;;;9.66;;
54328;SDS011;40710;51.120;13.136;2024-01-15T10:16:29;10.15;;;9.97;;
54328;SDS011;40710;51.120;13.136;2024-01-15T10:18:54;10.02;;;9.74;;
54328;SDS011;40710;51.120;13.136;2024-01-15T10:21:18;9.85;;;9.65;;
54328;SDS011;40710;51.120;13.136;2024-01-15T10:23:43;9.83;;;9.60;;
54328;SDS011;40710;51.120;13.136;2024-01-15T10:26:08;9.81;;;9.46;;
54328;SDS011;40710;51.120;13.136;2024-01-15T10:28:33;9.98;;;9.64;;
54328;SDS011;40710;51.120;13.136;2024-01-15T10:30:58;9.77;;;9.51;;
54328;SDS011;40710;51.120;13.136;2024-01-15T10:33:23;9.71;;;9.47;;
54328;SDS011;40710;51.120;13.136;2024-01-15T10:35:54;9.79;;;9.52;;
54328;SDS011;40710;51.120;13.136;2024-01-15T10:38:21;9.50;;;9.29;;
54328;SDS011;40710;51.120;13.136;2024-01-15T10:40:46;9.63;;;9.29;;
54328;SDS011;40710;51.120;13.136;2024-01-15T10:43:11;9.84;;;9.63;;
54328;SDS011;40710;51.120;13.136;2024-01-15T10:45:35;9.97;;;9.71;;
54328;SDS011;40710;51.120;13.136;2024-01-15T10:48:00;10.41;;;10.10;;
54328;SDS011;40710;51.120;13.136;2024-01-15T10:50:26;10.07;;;9.78;;
54328;SDS011;40710;51.120;13.136;2024-01-15T10:52:51;10.56;;;10.21;;
54328;SDS011;40710;51.120;13.136;2024-01-15T10:55:16;10.51;;;10.25;;
54328;SDS011;40710;51.120;13.136;2024-01-15T10:57:42;10.46;;;10.18;;
54328;SDS011;40710;51.120;13.136;2024-01-15T11:00:09;10.48;;;10.28;;
54328;SDS011;40710;51.120;13.136;2024-01-15T11:02:38;10.42;;;10.18;;
54328;SDS011;40710;51.120;13.136;2024-01-15T11:05:03;10.35;;;10.04;;
54328;SDS011;40710;51.120;13.136;2024-01-15T11:07:29;10.04;;;9.79;;
54328;SDS011;40710;51.120;13.136;2024-01-15T11:09:55;10.31;;;9.98;;
54328;SDS011;40710;51.120;13.136;2024-01-15T11:12:19;10.33;;;9.98;;
54328;SDS011;40710;51.120;13.136;2024-01-15T11:14:47;9.90;;;9.59;;
54328;SDS011;40710;51.120;13.136;2024-01-15T11:17:13;10.10;;;9.85;;
54328;SDS011;40710;51.120;13.136;2024-01-15T11:19:42;9.85;;;9.60;;
54328;SDS011;40710;51.120;13.136;2024-01-15T11:24:54;10.15;;;9.83;;
54328;SDS011;40710;51.120;13.136;2024-01-15T11:27:19;9.88;;;9.62;;
54328;SDS011;40710;51.120;13.136;2024-01-15T11:30:06;9.99;;;9.72;;
54328;SDS011;40710;51.120;13.136;2024-01-15T11:32:33;9.70;;;9.49;;
54328;SDS011;40710;51.120;13.136;2024-01-15T11:34:59;9.34;;;9.13;;
54328;SDS011;40710;51.120;13.136;2024-01-15T11:37:26;8.94;;;8.71;;
54328;SDS011;40710;51.120;13.136;2024-01-15T11:39:53;8.78;;;8.50;;
54328;SDS011;40710;51.120;13.136;2024-01-15T11:42:19;9.02;;;8.75;;
54328;SDS011;40710;51.120;13.136;2024-01-15T11:44:45;9.13;;;8.91;;
54328;SDS011;40710;51.120;13.136;2024-01-15T11:47:11;8.96;;;8.77;;
54328;SDS011;40710;51.120;13.136;2024-01-15T11:49:50;8.71;;;8.58;;
54328;SDS011;40710;51.120;13.136;2024-01-15T11:52:31;8.49;;;8.35;;
54328;SDS011;40710;51.120;13.136;2024-01-15T11:55:11;8.28;;;8.14;;
54328;SDS011;40710;51.120;13.136;2024-01-15T11:57:53;8.03;;;7.79;;
54328;SDS011;40710;51.120;13.136;2024-01-15T12:00:21;7.95;;;7.81;;
54328;SDS011;40710;51.120;13.136;2024-01-15T12:02:47;8.10;;;7.93;;
54328;SDS011;40710;51.120;13.136;2024-01-15T12:05:13;7.64;;;7.43;;
54328;SDS011;40710;51.120;13.136;2024-01-15T12:07:39;7.66;;;7.48;;
54328;SDS011;40710;51.120;13.136;2024-01-15T12:10:11;7.77;;;7.62;;
54328;SDS011;40710;51.120;13.136;2024-01-15T12:15:33;7.88;;;7.69;;
54328;SDS011;40710;51.120;13.136;2024-01-15T12:17:59;7.67;;;7.42;;
54328;SDS011;40710;51.120;13.136;2024-01-15T12:20:26;7.59;;;7.35;;
54328;SDS011;40710;51.120;13.136;2024-01-15T12:22:52;7.24;;;7.12;;
54328;SDS011;40710;51.120;13.136;2024-01-15T12:25:17;7.67;;;7.54;;
54328;SDS011;40710;51.120;13.136;2024-01-15T12:27:41;7.40;;;7.29;;
54328;SDS011;40710;51.120;13.136;2024-01-15T12:30:06;7.51;;;7.43;;
54328;SDS011;40710;51.120;13.136;2024-01-15T12:32:31;7.52;;;7.43;;
54328;SDS011;40710;51.120;13.136;2024-01-15T12:34:56;7.59;;;7.34;;
54328;SDS011;40710;51.120;13.136;2024-01-15T12:37:20;7.34;;;7.12;;
54328;SDS011;40710;51.120;13.136;2024-01-15T12:39:45;7.39;;;7.22;;
54328;SDS011;40710;51.120;13.136;2024-01-15T12:42:11;7.05;;;6.93;;
54328;SDS011;40710;51.120;13.136;2024-01-15T12:44:35;7.36;;;7.28;;
54328;SDS011;40710;51.120;13.136;2024-01-15T12:47:02;7.31;;;7.20;;
54328;SDS011;40710;51.120;13.136;2024-01-15T12:49:26;6.94;;;6.84;;
54328;SDS011;40710;51.120;13.136;2024-01-15T12:51:53;7.41;;;7.24;;
54328;SDS011;40710;51.120;13.136;2024-01-15T12:54:18;7.42;;;7.27;;
54328;SDS011;40710;51.120;13.136;2024-01-15T12:56:43;7.12;;;6.99;;
54328;SDS011;40710;51.120;13.136;2024-01-15T12:59:07;7.58;;;7.42;;
54328;SDS011;40710;51.120;13.136;2024-01-15T13:01:32;7.50;;;7.32;;
54328;SDS011;40710;51.120;13.136;2024-01-15T13:03:56;7.44;;;7.26;;
54328;SDS011;40710;51.120;13.136;2024-01-15T13:06:21;7.28;;;7.13;;
54328;SDS011;40710;51.120;13.136;2024-01-15T13:08:45;7.15;;;7.00;;
54328;SDS011;40710;51.120;13.136;2024-01-15T13:11:11;7.60;;;7.46;;
54328;SDS011;40710;51.120;13.136;2024-01-15T13:13:36;7.45;;;7.33;;
54328;SDS011;40710;51.120;13.136;2024-01-15T13:16:00;7.68;;;7.48;;
54328;SDS011;40710;51.120;13.136;2024-01-15T13:18:25;7.19;;;7.05;;
54328;SDS011;40710;51.120;13.136;2024-01-15T13:20:49;7.63;;;7.46;;
54328;SDS011;40710;51.120;13.136;2024-01-15T13:23:14;7.93;;;7.81;;
54328;SDS011;40710;51.120;13.136;2024-01-15T13:25:39;7.76;;;7.60;;
54328;SDS011;40710;51.120;13.136;2024-01-15T13:28:04;7.70;;;7.53;;
54328;SDS011;40710;51.120;13.136;2024-01-15T13:30:29;8.05;;;7.86;;
54328;SDS011;40710;51.120;13.136;2024-01-15T13:32:54;7.91;;;7.73;;
54328;SDS011;40710;51.120;13.136;2024-01-15T13:35:20;7.99;;;7.88;;
54328;SDS011;40710;51.120;13.136;2024-01-15T13:37:44;7.48;;;7.37;;
54328;SDS011;40710;51.120;13.136;2024-01-15T13:40:09;7.91;;;7.69;;
54328;SDS011;40710;51.120;13.136;2024-01-15T13:42:40;8.09;;;7.79;;
54328;SDS011;40710;51.120;13.136;2024-01-15T13:45:05;7.90;;;7.72;;
54328;SDS011;40710;51.120;13.136;2024-01-15T13:47:30;7.34;;;7.16;;
54328;SDS011;40710;51.120;13.136;2024-01-15T13:49:54;7.45;;;7.32;;
54328;SDS011;40710;51.120;13.136;2024-01-15T13:52:19;7.52;;;7.34;;
54328;SDS011;40710;51.120;13.136;2024-01-15T13:54:43;7.56;;;7.35;;
54328;SDS011;40710;51.120;13.136;2024-01-15T13:57:08;7.28;;;7.16;;
54328;SDS011;40710;51.120;13.136;2024-01-15T13:59:33;7.00;;;6.81;;
54328;SDS011;40710;51.120;13.136;2024-01-15T14:01:57;6.77;;;6.63;;
54328;SDS011;40710;51.120;13.136;2024-01-15T14:04:22;7.17;;;7.07;;
54328;SDS011;40710;51.120;13.136;2024-01-15T14:06:46;7.47;;;7.27;;
54328;SDS011;40710;51.120;13.136;2024-01-15T14:09:11;6.97;;;6.79;;